^^
Your Local Weather - Clay, NY Station Historical Data
Daily Summary for January 6, 2018 Units:  Both    English   Metric
« Previous Day
Next Day »
Daily Weekly Monthly Yearly Custom
  High: Low: Average:
Temperature: 5.4 °F /  -14.8 °C -0.6 °F /  -18.1 °C 2.7 °F /  -16.3 °C
Dew Point: 1.9 °F /  -16.7 °C -4.3 °F /  -20.2 °C -1 °F /  -18.3 °C
Humidity: 86% 81% 84%
Wind Speed: 5.0mph /  8km/h - 2.3mph /  3.7km/h
Wind Gust: 9.0mph /  14.5km/h - -
Wind- - NW
Pressure: 30.50 in /  1032.7 hPa 30.02 in /  1016.5 hPa -
Precipitation: 0.00 in /  0 mm    
Historical Graphs
 
 
Tabular Data for January 6, 2018
Time Temperature Dew Point Pressure Wind Wind Speed Wind Gust Humidity Rainfall Rate (Hourly) solar
00:06 4.9 °F /  -15.1 °C 1.6 °F /  -16.9 °C 30.02in /  1016.5hPa NW 5.0mph /  8km/h 7.0mph /  11.3km/h 86% 0.00in /  0mm 0 W/m2
00:16 4.9 °F /  -15.1 °C 1.6 °F /  -16.9 °C 30.02in /  1016.5hPa NW 4.0mph /  6.4km/h 5.0mph /  8km/h 86% 0.00in /  0mm 0 W/m2
00:22 4.9 °F /  -15.1 °C 1.6 °F /  -16.9 °C 30.02in /  1016.5hPa NW 4.0mph /  6.4km/h 4.0mph /  6.4km/h 86% 0.00in /  0mm 0 W/m2
00:28 4.9 °F /  -15.1 °C 1.6 °F /  -16.9 °C 30.03in /  1016.8hPa WNW 5.0mph /  8km/h 9.0mph /  14.5km/h 86% 0.00in /  0mm 0 W/m2
00:34 5.0 °F /  -15 °C 1.7 °F /  -16.8 °C 30.02in /  1016.5hPa WNW 5.0mph /  8km/h 5.0mph /  8km/h 86% 0.00in /  0mm 0 W/m2
00:40 5.0 °F /  -15 °C 1.7 °F /  -16.8 °C 30.02in /  1016.5hPa NW 4.0mph /  6.4km/h 8.0mph /  12.9km/h 86% 0.00in /  0mm 0 W/m2
00:48 5.1 °F /  -14.9 °C 1.8 °F /  -16.8 °C 30.03in /  1016.8hPa WNW 3.0mph /  4.8km/h 8.0mph /  12.9km/h 86% 0.00in /  0mm 0 W/m2
00:54 5.1 °F /  -14.9 °C 1.8 °F /  -16.8 °C 30.03in /  1016.8hPa West 3.0mph /  4.8km/h 7.0mph /  11.3km/h 86% 0.00in /  0mm 0 W/m2
01:00 5.1 °F /  -14.9 °C 1.8 °F /  -16.8 °C 30.03in /  1016.8hPa WNW 4.0mph /  6.4km/h 6.0mph /  9.7km/h 86% 0.00in /  0mm 0 W/m2
01:06 5.2 °F /  -14.9 °C 1.9 °F /  -16.7 °C 30.03in /  1016.8hPa WNW 5.0mph /  8km/h 6.0mph /  9.7km/h 86% 0.00in /  0mm 0 W/m2
01:14 4.8 °F /  -15.1 °C 1.5 °F /  -16.9 °C 30.04in /  1017.2hPa WNW 3.0mph /  4.8km/h 7.0mph /  11.3km/h 86% 0.00in /  0mm 0 W/m2
01:20 4.5 °F /  -15.3 °C 1.0 °F /  -17.2 °C 30.03in /  1016.8hPa West 2.0mph /  3.2km/h 2.0mph /  3.2km/h 85% 0.00in /  0mm 0 W/m2
01:26 4.2 °F /  -15.4 °C 0.7 °F /  -17.4 °C 30.04in /  1017.2hPa WNW 1.0mph /  1.6km/h 2.0mph /  3.2km/h 85% 0.00in /  0mm 0 W/m2
01:34 4.0 °F /  -15.6 °C 0.5 °F /  -17.5 °C 30.04in /  1017.2hPa West 2.0mph /  3.2km/h 2.0mph /  3.2km/h 85% 0.00in /  0mm 0 W/m2
01:40 3.9 °F /  -15.6 °C 0.4 °F /  -17.6 °C 30.05in /  1017.5hPa WNW 2.0mph /  3.2km/h 2.0mph /  3.2km/h 85% 0.00in /  0mm 0 W/m2
01:48 3.9 °F /  -15.6 °C 0.4 °F /  -17.6 °C 30.05in /  1017.5hPa WNW 2.0mph /  3.2km/h 3.0mph /  4.8km/h 85% 0.00in /  0mm 0 W/m2
01:52 3.9 °F /  -15.6 °C 0.4 °F /  -17.6 °C 30.05in /  1017.5hPa West 2.0mph /  3.2km/h 3.0mph /  4.8km/h 85% 0.00in /  0mm 0 W/m2
02:00 4.1 °F /  -15.5 °C 0.8 °F /  -17.3 °C 30.05in /  1017.5hPa WNW 2.0mph /  3.2km/h 2.0mph /  3.2km/h 86% 0.00in /  0mm 0 W/m2
02:08 4.3 °F /  -15.4 °C 1.0 °F /  -17.2 °C 30.06in /  1017.8hPa NNW 3.0mph /  4.8km/h 7.0mph /  11.3km/h 86% 0.00in /  0mm 0 W/m2
02:14 4.3 °F /  -15.4 °C 1.0 °F /  -17.2 °C 30.06in /  1017.8hPa NW 4.0mph /  6.4km/h 9.0mph /  14.5km/h 86% 0.00in /  0mm 0 W/m2
02:18 4.1 °F /  -15.5 °C 0.8 °F /  -17.3 °C 30.07in /  1018.2hPa NNW 5.0mph /  8km/h 9.0mph /  14.5km/h 86% 0.00in /  0mm 0 W/m2
02:24 4.0 °F /  -15.6 °C 0.5 °F /  -17.5 °C 30.07in /  1018.2hPa NW 4.0mph /  6.4km/h 6.0mph /  9.7km/h 85% 0.00in /  0mm 0 W/m2
02:30 3.8 °F /  -15.7 °C 0.3 °F /  -17.6 °C 30.07in /  1018.2hPa NNW 3.0mph /  4.8km/h 3.0mph /  4.8km/h 85% 0.00in /  0mm 0 W/m2
02:36 3.6 °F /  -15.8 °C 0.1 °F /  -17.7 °C 30.07in /  1018.2hPa NNW 3.0mph /  4.8km/h 3.0mph /  4.8km/h 85% 0.00in /  0mm 0 W/m2
02:42 3.3 °F /  -15.9 °C -0.2 °F /  -17.9 °C 30.08in /  1018.5hPa WNW 3.0mph /  4.8km/h 3.0mph /  4.8km/h 85% 0.00in /  0mm 0 W/m2
02:48 3.1 °F /  -16.1 °C -0.4 °F /  -18 °C 30.08in /  1018.5hPa NW 3.0mph /  4.8km/h 7.0mph /  11.3km/h 85% 0.00in /  0mm 0 W/m2
02:56 2.7 °F /  -16.3 °C -0.8 °F /  -18.2 °C 30.08in /  1018.5hPa WNW 4.0mph /  6.4km/h 4.0mph /  6.4km/h 85% 0.00in /  0mm 0 W/m2
03:02 2.4 °F /  -16.4 °C -1.1 °F /  -18.4 °C 30.08in /  1018.5hPa WNW 3.0mph /  4.8km/h 4.0mph /  6.4km/h 85% 0.00in /  0mm 0 W/m2
03:08 2.2 °F /  -16.6 °C -1.3 °F /  -18.5 °C 30.09in /  1018.8hPa NW 3.0mph /  4.8km/h 4.0mph /  6.4km/h 85% 0.00in /  0mm 0 W/m2
03:16 2.0 °F /  -16.7 °C -1.5 °F /  -18.6 °C 30.09in /  1018.8hPa WNW 3.0mph /  4.8km/h 6.0mph /  9.7km/h 85% 0.00in /  0mm 0 W/m2
03:22 1.8 °F /  -16.8 °C -1.7 °F /  -18.7 °C 30.09in /  1018.8hPa NNW 4.0mph /  6.4km/h 4.0mph /  6.4km/h 85% 0.00in /  0mm 0 W/m2
03:42 1.2 °F /  -17.1 °C -2.5 °F /  -19.2 °C 30.10in /  1019.2hPa NNW 3.0mph /  4.8km/h 3.0mph /  4.8km/h 84% 0.00in /  0mm 0 W/m2
03:56 1.1 °F /  -17.2 °C -2.6 °F /  -19.2 °C 30.10in /  1019.2hPa NW 3.0mph /  4.8km/h 4.0mph /  6.4km/h 84% 0.00in /  0mm 0 W/m2
04:02 1.0 °F /  -17.2 °C -2.7 °F /  -19.3 °C 30.10in /  1019.2hPa NNW 3.0mph /  4.8km/h 3.0mph /  4.8km/h 84% 0.00in /  0mm 0 W/m2
04:08 1.0 °F /  -17.2 °C -2.7 °F /  -19.3 °C 30.10in /  1019.2hPa WNW 4.0mph /  6.4km/h 4.0mph /  6.4km/h 84% 0.00in /  0mm 0 W/m2
04:16 1.0 °F /  -17.2 °C -2.7 °F /  -19.3 °C 30.11in /  1019.5hPa NNW 4.0mph /  6.4km/h 5.0mph /  8km/h 84% 0.00in /  0mm 0 W/m2
04:22 1.1 °F /  -17.2 °C -2.6 °F /  -19.2 °C 30.10in /  1019.2hPa NW 4.0mph /  6.4km/h 8.0mph /  12.9km/h 84% 0.00in /  0mm 0 W/m2
04:28 1.1 °F /  -17.2 °C -2.6 °F /  -19.2 °C 30.10in /  1019.2hPa West 4.0mph /  6.4km/h 8.0mph /  12.9km/h 84% 0.00in /  0mm 0 W/m2
04:34 1.1 °F /  -17.2 °C -2.6 °F /  -19.2 °C 30.11in /  1019.5hPa WNW 3.0mph /  4.8km/h 4.0mph /  6.4km/h 84% 0.00in /  0mm 0 W/m2
04:40 1.1 °F /  -17.2 °C -2.6 °F /  -19.2 °C 30.11in /  1019.5hPa WNW 3.0mph /  4.8km/h 3.0mph /  4.8km/h 84% 0.00in /  0mm 0 W/m2
04:46 1.1 °F /  -17.2 °C -2.6 °F /  -19.2 °C 30.11in /  1019.5hPa NW 2.0mph /  3.2km/h 3.0mph /  4.8km/h 84% 0.00in /  0mm 0 W/m2
04:52 1.1 °F /  -17.2 °C -2.6 °F /  -19.2 °C 30.11in /  1019.5hPa NW 3.0mph /  4.8km/h 3.0mph /  4.8km/h 84% 0.00in /  0mm 0 W/m2
04:58 1.1 °F /  -17.2 °C -2.6 °F /  -19.2 °C 30.11in /  1019.5hPa NW 3.0mph /  4.8km/h 6.0mph /  9.7km/h 84% 0.00in /  0mm 0 W/m2
05:06 1.1 °F /  -17.2 °C -2.6 °F /  -19.2 °C 30.12in /  1019.9hPa WNW 2.0mph /  3.2km/h 3.0mph /  4.8km/h 84% 0.00in /  0mm 0 W/m2
05:14 1.0 °F /  -17.2 °C -2.7 °F /  -19.3 °C 30.13in /  1020.2hPa NW 3.0mph /  4.8km/h 3.0mph /  4.8km/h 84% 0.00in /  0mm 0 W/m2
05:20 0.9 °F /  -17.3 °C -2.8 °F /  -19.3 °C 30.13in /  1020.2hPa NW 3.0mph /  4.8km/h 3.0mph /  4.8km/h 84% 0.00in /  0mm 0 W/m2
05:28 0.8 °F /  -17.3 °C -2.9 °F /  -19.4 °C 30.13in /  1020.2hPa WNW 3.0mph /  4.8km/h 5.0mph /  8km/h 84% 0.00in /  0mm 0 W/m2
05:40 0.7 °F /  -17.4 °C -3.0 °F /  -19.4 °C 30.14in /  1020.5hPa NNW 2.0mph /  3.2km/h 2.0mph /  3.2km/h 84% 0.00in /  0mm 0 W/m2
05:52 0.4 °F /  -17.6 °C -3.3 °F /  -19.6 °C 30.15in /  1020.9hPa NNW 3.0mph /  4.8km/h 3.0mph /  4.8km/h 84% 0.00in /  0mm 0 W/m2
05:58 0.2 °F /  -17.7 °C -3.5 °F /  -19.7 °C 30.15in /  1020.9hPa WNW 2.0mph /  3.2km/h 3.0mph /  4.8km/h 84% 0.00in /  0mm 0 W/m2
06:08 0.0 °F /  -17.8 °C -3.7 °F /  -19.8 °C 30.16in /  1021.2hPa WNW 3.0mph /  4.8km/h 4.0mph /  6.4km/h 84% 0.00in /  0mm 0 W/m2
06:14 -0.1 °F /  -17.8 °C -3.8 °F /  -19.9 °C 30.16in /  1021.2hPa NW 2.0mph /  3.2km/h 4.0mph /  6.4km/h 84% 0.00in /  0mm 0 W/m2
06:24 -0.2 °F /  -17.9 °C -3.9 °F /  -19.9 °C 30.16in /  1021.2hPa NW 1.0mph /  1.6km/h 3.0mph /  4.8km/h 84% 0.00in /  0mm 0 W/m2
06:34 -0.5 °F /  -18.1 °C -4.2 °F /  -20.1 °C 30.16in /  1021.2hPa NW 2.0mph /  3.2km/h 3.0mph /  4.8km/h 84% 0.00in /  0mm 0 W/m2
06:40 -0.5 °F /  -18.1 °C -4.2 °F /  -20.1 °C 30.16in /  1021.2hPa NNW 2.0mph /  3.2km/h 2.0mph /  3.2km/h 84% 0.00in /  0mm 0 W/m2
06:46 -0.6 °F /  -18.1 °C -4.3 °F /  -20.2 °C 30.17in /  1021.6hPa NW 1.0mph /  1.6km/h 2.0mph /  3.2km/h 84% 0.00in /  0mm 0 W/m2
06:54 -0.6 °F /  -18.1 °C -4.3 °F /  -20.2 °C 30.17in /  1021.6hPa Calm   1.0mph /  1.6km/h 84% 0.00in /  0mm 0 W/m2
07:00 -0.6 °F /  -18.1 °C -4.3 °F /  -20.2 °C 30.17in /  1021.6hPa Calm   1.0mph /  1.6km/h 84% 0.00in /  0mm 0 W/m2
07:06 -0.5 °F /  -18.1 °C -4.2 °F /  -20.1 °C 30.18in /  1021.9hPa NW 1.0mph /  1.6km/h 2.0mph /  3.2km/h 84% 0.00in /  0mm 0 W/m2
07:14 -0.2 °F /  -17.9 °C -3.9 °F /  -19.9 °C 30.17in /  1021.6hPa WNW 2.0mph /  3.2km/h 3.0mph /  4.8km/h 84% 0.00in /  0mm 0 W/m2
07:22 0.2 °F /  -17.7 °C -3.5 °F /  -19.7 °C 30.17in /  1021.6hPa WNW 2.0mph /  3.2km/h 2.0mph /  3.2km/h 84% 0.00in /  0mm 0 W/m2
07:30 0.5 °F /  -17.5 °C -3.2 °F /  -19.6 °C 30.18in /  1021.9hPa WNW 2.0mph /  3.2km/h 2.0mph /  3.2km/h 84% 0.00in /  0mm 0 W/m2
07:38 0.8 °F /  -17.3 °C -2.7 °F /  -19.3 °C 30.18in /  1021.9hPa WNW 3.0mph /  4.8km/h 3.0mph /  4.8km/h 85% 0.00in /  0mm 0 W/m2
07:46 1.1 °F /  -17.2 °C -2.4 °F /  -19.1 °C 30.18in /  1021.9hPa NW 2.0mph /  3.2km/h 4.0mph /  6.4km/h 85% 0.00in /  0mm 0 W/m2
07:52 1.2 °F /  -17.1 °C -2.3 °F /  -19.1 °C 30.18in /  1021.9hPa NW 2.0mph /  3.2km/h 5.0mph /  8km/h 85% 0.00in /  0mm 0 W/m2
07:58 1.4 °F /  -17 °C -2.1 °F /  -18.9 °C 30.18in /  1021.9hPa WNW 2.0mph /  3.2km/h 5.0mph /  8km/h 85% 0.00in /  0mm 0 W/m2
08:04 1.5 °F /  -16.9 °C -2.0 °F /  -18.9 °C 30.19in /  1022.2hPa WNW 2.0mph /  3.2km/h 2.0mph /  3.2km/h 85% 0.00in /  0mm 0 W/m2
08:10 1.6 °F /  -16.9 °C -1.9 °F /  -18.8 °C 30.19in /  1022.2hPa NW 2.0mph /  3.2km/h 2.0mph /  3.2km/h 85% 0.00in /  0mm 0 W/m2
08:16 1.6 °F /  -16.9 °C -1.9 °F /  -18.8 °C 30.19in /  1022.2hPa WNW 2.0mph /  3.2km/h 3.0mph /  4.8km/h 85% 0.00in /  0mm 0 W/m2
08:22 1.6 °F /  -16.9 °C -1.9 °F /  -18.8 °C 30.19in /  1022.2hPa NW 2.0mph /  3.2km/h 2.0mph /  3.2km/h 85% 0.00in /  0mm 5 W/m2
08:28 1.5 °F /  -16.9 °C -2.0 °F /  -18.9 °C 30.19in /  1022.2hPa NW 2.0mph /  3.2km/h 2.0mph /  3.2km/h 85% 0.00in /  0mm 5 W/m2
08:34 1.5 °F /  -16.9 °C -2.0 °F /  -18.9 °C 30.20in /  1022.6hPa NW 2.0mph /  3.2km/h 4.0mph /  6.4km/h 85% 0.00in /  0mm 7 W/m2
08:40 1.5 °F /  -16.9 °C -2.0 °F /  -18.9 °C 30.20in /  1022.6hPa NNW 2.0mph /  3.2km/h 2.0mph /  3.2km/h 85% 0.00in /  0mm 7 W/m2
08:46 1.6 °F /  -16.9 °C -1.9 °F /  -18.8 °C 30.20in /  1022.6hPa WNW 2.0mph /  3.2km/h 2.0mph /  3.2km/h 85% 0.00in /  0mm 9 W/m2
08:52 1.7 °F /  -16.8 °C -1.8 °F /  -18.8 °C 30.21in /  1022.9hPa WNW 1.0mph /  1.6km/h 1.0mph /  1.6km/h 85% 0.00in /  0mm 9 W/m2
09:00 2.1 °F /  -16.6 °C -1.4 °F /  -18.6 °C 30.21in /  1022.9hPa WNW 1.0mph /  1.6km/h 1.0mph /  1.6km/h 85% 0.00in /  0mm 12 W/m2
09:10 2.8 °F /  -16.2 °C -0.7 °F /  -18.2 °C 30.21in /  1022.9hPa NW 2.0mph /  3.2km/h 2.0mph /  3.2km/h 85% 0.00in /  0mm 12 W/m2
09:16 3.0 °F /  -16.1 °C -0.5 °F /  -18.1 °C 30.22in /  1023.2hPa NNW 1.0mph /  1.6km/h 3.0mph /  4.8km/h 85% 0.00in /  0mm 12 W/m2
09:22 3.1 °F /  -16.1 °C -0.4 °F /  -18 °C 30.22in /  1023.2hPa NNW 1.0mph /  1.6km/h 6.0mph /  9.7km/h 85% 0.00in /  0mm 12 W/m2
09:28 3.2 °F /  -16 °C -0.3 °F /  -17.9 °C 30.23in /  1023.6hPa NW 2.0mph /  3.2km/h 6.0mph /  9.7km/h 85% 0.00in /  0mm 12 W/m2
09:36 3.1 °F /  -16.1 °C -0.4 °F /  -18 °C 30.23in /  1023.6hPa North 2.0mph /  3.2km/h 2.0mph /  3.2km/h 85% 0.00in /  0mm 14 W/m2
09:44 2.8 °F /  -16.2 °C -0.7 °F /  -18.2 °C 30.24in /  1023.9hPa NW 3.0mph /  4.8km/h 4.0mph /  6.4km/h 85% 0.00in /  0mm 12 W/m2
09:52 2.4 °F /  -16.4 °C -1.1 °F /  -18.4 °C 30.24in /  1023.9hPa NW 3.0mph /  4.8km/h 3.0mph /  4.8km/h 85% 0.00in /  0mm 14 W/m2
09:58 2.3 °F /  -16.5 °C -1.4 °F /  -18.6 °C 30.25in /  1024.3hPa NW 3.0mph /  4.8km/h 3.0mph /  4.8km/h 84% 0.00in /  0mm 14 W/m2
10:06 2.0 °F /  -16.7 °C -1.7 °F /  -18.7 °C 30.25in /  1024.3hPa WNW 4.0mph /  6.4km/h 4.0mph /  6.4km/h 84% 0.00in /  0mm 14 W/m2
10:12 1.8 °F /  -16.8 °C -1.9 °F /  -18.8 °C 30.25in /  1024.3hPa North 3.0mph /  4.8km/h 6.0mph /  9.7km/h 84% 0.00in /  0mm 19 W/m2
10:20 1.7 °F /  -16.8 °C -2.0 °F /  -18.9 °C 30.26in /  1024.6hPa NNW 3.0mph /  4.8km/h 4.0mph /  6.4km/h 84% 0.00in /  0mm 16 W/m2
10:32 1.7 °F /  -16.8 °C -2.0 °F /  -18.9 °C 30.26in /  1024.6hPa NW 2.0mph /  3.2km/h 3.0mph /  4.8km/h 84% 0.00in /  0mm 14 W/m2
10:38 1.7 °F /  -16.8 °C -2.0 °F /  -18.9 °C 30.27in /  1024.9hPa NNW 3.0mph /  4.8km/h 3.0mph /  4.8km/h 84% 0.00in /  0mm 16 W/m2
10:48 1.6 °F /  -16.9 °C -2.1 °F /  -18.9 °C 30.27in /  1024.9hPa NW 3.0mph /  4.8km/h 4.0mph /  6.4km/h 84% 0.00in /  0mm 19 W/m2
10:56 1.7 °F /  -16.8 °C -2.0 °F /  -18.9 °C 30.27in /  1024.9hPa WNW 2.0mph /  3.2km/h 5.0mph /  8km/h 84% 0.00in /  0mm 18 W/m2
11:04 1.7 °F /  -16.8 °C -2.0 °F /  -18.9 °C 30.27in /  1024.9hPa NW 3.0mph /  4.8km/h 4.0mph /  6.4km/h 84% 0.00in /  0mm 18 W/m2
11:10 1.8 °F /  -16.8 °C -1.9 °F /  -18.8 °C 30.27in /  1024.9hPa NW 3.0mph /  4.8km/h 3.0mph /  4.8km/h 84% 0.00in /  0mm 23 W/m2
11:16 1.9 °F /  -16.7 °C -1.8 °F /  -18.8 °C 30.27in /  1024.9hPa NW 2.0mph /  3.2km/h 3.0mph /  4.8km/h 84% 0.00in /  0mm 23 W/m2
11:22 2.1 °F /  -16.6 °C -1.6 °F /  -18.7 °C 30.27in /  1024.9hPa NNW 3.0mph /  4.8km/h 3.0mph /  4.8km/h 84% 0.00in /  0mm 21 W/m2
11:28 2.1 °F /  -16.6 °C -1.6 °F /  -18.7 °C 30.27in /  1024.9hPa NNW 3.0mph /  4.8km/h 3.0mph /  4.8km/h 84% 0.00in /  0mm 23 W/m2
11:34 2.1 °F /  -16.6 °C -1.6 °F /  -18.7 °C 30.27in /  1024.9hPa NW 3.0mph /  4.8km/h 5.0mph /  8km/h 84% 0.00in /  0mm 26 W/m2
11:40 2.2 °F /  -16.6 °C -1.5 °F /  -18.6 °C 30.27in /  1024.9hPa NW 3.0mph /  4.8km/h 3.0mph /  4.8km/h 84% 0.00in /  0mm 28 W/m2
11:46 2.2 °F /  -16.6 °C -1.5 °F /  -18.6 °C 30.27in /  1024.9hPa NNW 3.0mph /  4.8km/h 3.0mph /  4.8km/h 84% 0.00in /  0mm 32 W/m2
11:54 2.2 °F /  -16.6 °C -1.8 °F /  -18.8 °C 30.27in /  1024.9hPa WNW 3.0mph /  4.8km/h 4.0mph /  6.4km/h 83% 0.00in /  0mm 30 W/m2
12:06 2.1 °F /  -16.6 °C -1.9 °F /  -18.8 °C 30.27in /  1024.9hPa NW 4.0mph /  6.4km/h 6.0mph /  9.7km/h 83% 0.00in /  0mm 33 W/m2
12:12 2.4 °F /  -16.4 °C -1.6 °F /  -18.7 °C 30.27in /  1024.9hPa NNW 4.0mph /  6.4km/h 9.0mph /  14.5km/h 83% 0.00in /  0mm 35 W/m2
12:24 3.1 °F /  -16.1 °C -0.9 °F /  -18.3 °C 30.27in /  1024.9hPa NNW 3.0mph /  4.8km/h 3.0mph /  4.8km/h 83% 0.00in /  0mm 35 W/m2
12:30 3.2 °F /  -16 °C -1.1 °F /  -18.4 °C 30.27in /  1024.9hPa NW 3.0mph /  4.8km/h 3.0mph /  4.8km/h 82% 0.00in /  0mm 26 W/m2
12:36 3.2 °F /  -16 °C -1.1 °F /  -18.4 °C 30.27in /  1024.9hPa WNW 3.0mph /  4.8km/h 3.0mph /  4.8km/h 82% 0.00in /  0mm 21 W/m2
12:48 3.7 °F /  -15.7 °C -0.8 °F /  -18.2 °C 30.28in /  1025.3hPa WNW 3.0mph /  4.8km/h 6.0mph /  9.7km/h 81% 0.00in /  0mm 30 W/m2
12:54 3.7 °F /  -15.7 °C -0.6 °F /  -18.1 °C 30.28in /  1025.3hPa NW 3.0mph /  4.8km/h 7.0mph /  11.3km/h 82% 0.00in /  0mm 26 W/m2
13:00 3.3 °F /  -15.9 °C -1.0 °F /  -18.3 °C 30.28in /  1025.3hPa NW 3.0mph /  4.8km/h 3.0mph /  4.8km/h 82% 0.00in /  0mm 21 W/m2
13:10 3.0 °F /  -16.1 °C -1.3 °F /  -18.5 °C 30.28in /  1025.3hPa NNW 3.0mph /  4.8km/h 3.0mph /  4.8km/h 82% 0.00in /  0mm 28 W/m2
13:20 3.3 °F /  -15.9 °C -1.0 °F /  -18.3 °C 30.29in /  1025.6hPa NNW 3.0mph /  4.8km/h 3.0mph /  4.8km/h 82% 0.00in /  0mm 26 W/m2
13:26 3.3 °F /  -15.9 °C -0.7 °F /  -18.2 °C 30.29in /  1025.6hPa NW 3.0mph /  4.8km/h 3.0mph /  4.8km/h 83% 0.00in /  0mm 18 W/m2
13:32 3.3 °F /  -15.9 °C -0.7 °F /  -18.2 °C 30.29in /  1025.6hPa NW 2.0mph /  3.2km/h 3.0mph /  4.8km/h 83% 0.00in /  0mm 19 W/m2
13:40 3.2 °F /  -16 °C -0.8 °F /  -18.2 °C 30.29in /  1025.6hPa NW 2.0mph /  3.2km/h 2.0mph /  3.2km/h 83% 0.00in /  0mm 18 W/m2
13:46 3.4 °F /  -15.9 °C -0.6 °F /  -18.1 °C 30.29in /  1025.6hPa NNW 3.0mph /  4.8km/h 3.0mph /  4.8km/h 83% 0.00in /  0mm 23 W/m2
13:52 4.1 °F /  -15.5 °C 0.1 °F /  -17.7 °C 30.29in /  1025.6hPa NNW 3.0mph /  4.8km/h 3.0mph /  4.8km/h 83% 0.00in /  0mm 47 W/m2
13:58 4.7 °F /  -15.2 °C 0.7 °F /  -17.4 °C 30.29in /  1025.6hPa NNW 3.0mph /  4.8km/h 4.0mph /  6.4km/h 83% 0.00in /  0mm 23 W/m2
14:04 4.4 °F /  -15.3 °C 0.4 °F /  -17.6 °C 30.29in /  1025.6hPa NW 3.0mph /  4.8km/h 4.0mph /  6.4km/h 83% 0.00in /  0mm 23 W/m2
14:10 4.4 °F /  -15.3 °C 0.4 °F /  -17.6 °C 30.30in /  1026hPa NNW 2.0mph /  3.2km/h 2.0mph /  3.2km/h 83% 0.00in /  0mm 21 W/m2
14:16 4.6 °F /  -15.2 °C 0.6 °F /  -17.4 °C 30.30in /  1026hPa NW 2.0mph /  3.2km/h 3.0mph /  4.8km/h 83% 0.00in /  0mm 21 W/m2
14:22 5.0 °F /  -15 °C 1.0 °F /  -17.2 °C 30.30in /  1026hPa NW 2.0mph /  3.2km/h 2.0mph /  3.2km/h 83% 0.00in /  0mm 19 W/m2
14:30 5.0 °F /  -15 °C 1.0 °F /  -17.2 °C 30.30in /  1026hPa WNW 3.0mph /  4.8km/h 3.0mph /  4.8km/h 83% 0.00in /  0mm 19 W/m2
14:36 4.9 °F /  -15.1 °C 0.9 °F /  -17.3 °C 30.30in /  1026hPa NW 4.0mph /  6.4km/h 4.0mph /  6.4km/h 83% 0.00in /  0mm 23 W/m2
14:44 5.3 °F /  -14.8 °C 1.0 °F /  -17.2 °C 30.31in /  1026.3hPa WNW 3.0mph /  4.8km/h 3.0mph /  4.8km/h 82% 0.00in /  0mm 19 W/m2
14:50 5.4 °F /  -14.8 °C 1.4 °F /  -17 °C 30.31in /  1026.3hPa NW 3.0mph /  4.8km/h 4.0mph /  6.4km/h 83% 0.00in /  0mm 18 W/m2
14:56 5.4 °F /  -14.8 °C 1.4 °F /  -17 °C 30.32in /  1026.6hPa NW 3.0mph /  4.8km/h 7.0mph /  11.3km/h 83% 0.00in /  0mm 12 W/m2
15:02 5.3 °F /  -14.8 °C 1.3 °F /  -17.1 °C 30.32in /  1026.6hPa NW 3.0mph /  4.8km/h 6.0mph /  9.7km/h 83% 0.00in /  0mm 9 W/m2
15:08 5.1 °F /  -14.9 °C 1.1 °F /  -17.2 °C 30.32in /  1026.6hPa WNW 4.0mph /  6.4km/h 6.0mph /  9.7km/h 83% 0.00in /  0mm 7 W/m2
15:14 4.9 °F /  -15.1 °C 0.9 °F /  -17.3 °C 30.33in /  1027hPa NW 3.0mph /  4.8km/h 5.0mph /  8km/h 83% 0.00in /  0mm 7 W/m2
15:20 4.7 °F /  -15.2 °C 0.7 °F /  -17.4 °C 30.33in /  1027hPa WNW 3.0mph /  4.8km/h 3.0mph /  4.8km/h 83% 0.00in /  0mm 5 W/m2
15:26 4.6 °F /  -15.2 °C 0.8 °F /  -17.3 °C 30.33in /  1027hPa NW 3.0mph /  4.8km/h 5.0mph /  8km/h 84% 0.00in /  0mm 5 W/m2
15:32 4.6 °F /  -15.2 °C 0.8 °F /  -17.3 °C 30.33in /  1027hPa WNW 2.0mph /  3.2km/h 3.0mph /  4.8km/h 84% 0.00in /  0mm 5 W/m2
15:38 4.6 °F /  -15.2 °C 0.8 °F /  -17.3 °C 30.33in /  1027hPa NW 2.0mph /  3.2km/h 4.0mph /  6.4km/h 84% 0.00in /  0mm 5 W/m2
15:44 4.6 °F /  -15.2 °C 0.8 °F /  -17.3 °C 30.34in /  1027.3hPa NNW 2.0mph /  3.2km/h 2.0mph /  3.2km/h 84% 0.00in /  0mm 0 W/m2
15:52 4.5 °F /  -15.3 °C 0.7 °F /  -17.4 °C 30.34in /  1027.3hPa WNW 2.0mph /  3.2km/h 4.0mph /  6.4km/h 84% 0.00in /  0mm 0 W/m2
16:00 4.6 °F /  -15.2 °C 0.8 °F /  -17.3 °C 30.35in /  1027.7hPa WNW 2.0mph /  3.2km/h 4.0mph /  6.4km/h 84% 0.00in /  0mm 0 W/m2
16:06 4.7 °F /  -15.2 °C 0.9 °F /  -17.3 °C 30.35in /  1027.7hPa WNW 2.0mph /  3.2km/h 4.0mph /  6.4km/h 84% 0.00in /  0mm 0 W/m2
16:14 4.7 °F /  -15.2 °C 1.2 °F /  -17.1 °C 30.35in /  1027.7hPa WNW 2.0mph /  3.2km/h 4.0mph /  6.4km/h 85% 0.00in /  0mm 0 W/m2
16:22 4.7 °F /  -15.2 °C 1.2 °F /  -17.1 °C 30.36in /  1028hPa WNW 2.0mph /  3.2km/h 3.0mph /  4.8km/h 85% 0.00in /  0mm 0 W/m2
16:30 4.7 °F /  -15.2 °C 1.2 °F /  -17.1 °C 30.36in /  1028hPa WNW 3.0mph /  4.8km/h 3.0mph /  4.8km/h 85% 0.00in /  0mm 0 W/m2
16:36 4.7 °F /  -15.2 °C 0.9 °F /  -17.3 °C 30.36in /  1028hPa NW 2.0mph /  3.2km/h 3.0mph /  4.8km/h 84% 0.00in /  0mm 0 W/m2
16:42 4.7 °F /  -15.2 °C 1.2 °F /  -17.1 °C 30.36in /  1028hPa NW 2.0mph /  3.2km/h 2.0mph /  3.2km/h 85% 0.00in /  0mm 0 W/m2
16:50 4.6 °F /  -15.2 °C 1.1 °F /  -17.2 °C 30.36in /  1028hPa NW 2.0mph /  3.2km/h 6.0mph /  9.7km/h 85% 0.00in /  0mm 0 W/m2
16:56 4.4 °F /  -15.3 °C 0.9 °F /  -17.3 °C 30.37in /  1028.3hPa NNW 2.0mph /  3.2km/h 4.0mph /  6.4km/h 85% 0.00in /  0mm 0 W/m2
17:02 4.3 °F /  -15.4 °C 0.5 °F /  -17.5 °C 30.38in /  1028.7hPa NW 3.0mph /  4.8km/h 4.0mph /  6.4km/h 84% 0.00in /  0mm 0 W/m2
17:08 4.2 °F /  -15.4 °C 0.4 °F /  -17.6 °C 30.38in /  1028.7hPa NNW 3.0mph /  4.8km/h 4.0mph /  6.4km/h 84% 0.00in /  0mm 0 W/m2
17:14 4.1 °F /  -15.5 °C 0.3 °F /  -17.6 °C 30.38in /  1028.7hPa NW 2.0mph /  3.2km/h 2.0mph /  3.2km/h 84% 0.00in /  0mm 0 W/m2
17:20 4.0 °F /  -15.6 °C 0.2 °F /  -17.7 °C 30.38in /  1028.7hPa NW 1.0mph /  1.6km/h 1.0mph /  1.6km/h 84% 0.00in /  0mm 0 W/m2
17:26 4.0 °F /  -15.6 °C 0.5 °F /  -17.5 °C 30.38in /  1028.7hPa NW 1.0mph /  1.6km/h 1.0mph /  1.6km/h 85% 0.00in /  0mm 0 W/m2
17:32 3.9 °F /  -15.6 °C 0.4 °F /  -17.6 °C 30.38in /  1028.7hPa Calm   3.0mph /  4.8km/h 85% 0.00in /  0mm 0 W/m2
17:38 3.8 °F /  -15.7 °C 0.3 °F /  -17.6 °C 30.39in /  1029hPa NNW 1.0mph /  1.6km/h 3.0mph /  4.8km/h 85% 0.00in /  0mm 0 W/m2
17:44 3.7 °F /  -15.7 °C 0.2 °F /  -17.7 °C 30.40in /  1029.3hPa Calm   3.0mph /  4.8km/h 85% 0.00in /  0mm 0 W/m2
17:50 3.6 °F /  -15.8 °C 0.1 °F /  -17.7 °C 30.40in /  1029.3hPa NW 1.0mph /  1.6km/h 1.0mph /  1.6km/h 85% 0.00in /  0mm 0 W/m2
17:56 3.5 °F /  -15.8 °C 0.0 °F /  -17.8 °C 30.40in /  1029.3hPa NNW 1.0mph /  1.6km/h 2.0mph /  3.2km/h 85% 0.00in /  0mm 0 W/m2
18:04 3.4 °F /  -15.9 °C -0.1 °F /  -17.8 °C 30.40in /  1029.3hPa Calm   1.0mph /  1.6km/h 85% 0.00in /  0mm 0 W/m2
18:10 3.4 °F /  -15.9 °C -0.1 °F /  -17.8 °C 30.40in /  1029.3hPa Calm     85% 0.00in /  0mm 0 W/m2
18:20 3.4 °F /  -15.9 °C -0.1 °F /  -17.8 °C 30.41in /  1029.7hPa NNW 1.0mph /  1.6km/h 2.0mph /  3.2km/h 85% 0.00in /  0mm 0 W/m2
18:26 3.4 °F /  -15.9 °C -0.1 °F /  -17.8 °C 30.41in /  1029.7hPa NW 2.0mph /  3.2km/h 2.0mph /  3.2km/h 85% 0.00in /  0mm 0 W/m2
18:32 3.5 °F /  -15.8 °C 0.0 °F /  -17.8 °C 30.41in /  1029.7hPa NW 2.0mph /  3.2km/h 2.0mph /  3.2km/h 85% 0.00in /  0mm 0 W/m2
18:38 3.4 °F /  -15.9 °C -0.1 °F /  -17.8 °C 30.41in /  1029.7hPa NW 2.0mph /  3.2km/h 2.0mph /  3.2km/h 85% 0.00in /  0mm 0 W/m2
18:46 3.3 °F /  -15.9 °C -0.2 °F /  -17.9 °C 30.42in /  1030hPa NNW 2.0mph /  3.2km/h 4.0mph /  6.4km/h 85% 0.00in /  0mm 0 W/m2
18:52 3.2 °F /  -16 °C -0.3 °F /  -17.9 °C 30.42in /  1030hPa NW 2.0mph /  3.2km/h 3.0mph /  4.8km/h 85% 0.00in /  0mm 0 W/m2
18:58 3.1 °F /  -16.1 °C -0.4 °F /  -18 °C 30.42in /  1030hPa NNW 2.0mph /  3.2km/h 4.0mph /  6.4km/h 85% 0.00in /  0mm 0 W/m2
19:04 2.9 °F /  -16.2 °C -0.8 °F /  -18.2 °C 30.43in /  1030.4hPa NNW 2.0mph /  3.2km/h 4.0mph /  6.4km/h 84% 0.00in /  0mm 0 W/m2
19:12 2.8 °F /  -16.2 °C -0.9 °F /  -18.3 °C 30.43in /  1030.4hPa NW 3.0mph /  4.8km/h 3.0mph /  4.8km/h 84% 0.00in /  0mm 0 W/m2
19:24 2.6 °F /  -16.3 °C -1.1 °F /  -18.4 °C 30.44in /  1030.7hPa NW 3.0mph /  4.8km/h 3.0mph /  4.8km/h 84% 0.00in /  0mm 0 W/m2
19:30 2.5 °F /  -16.4 °C -1.2 °F /  -18.4 °C 30.44in /  1030.7hPa North 2.0mph /  3.2km/h 3.0mph /  4.8km/h 84% 0.00in /  0mm 0 W/m2
19:36 2.4 °F /  -16.4 °C -1.3 °F /  -18.5 °C 30.44in /  1030.7hPa NNW 2.0mph /  3.2km/h 3.0mph /  4.8km/h 84% 0.00in /  0mm 0 W/m2
19:42 2.4 °F /  -16.4 °C -1.3 °F /  -18.5 °C 30.44in /  1030.7hPa NW 3.0mph /  4.8km/h 3.0mph /  4.8km/h 84% 0.00in /  0mm 0 W/m2
19:48 2.3 °F /  -16.5 °C -1.4 °F /  -18.6 °C 30.44in /  1030.7hPa NNW 1.0mph /  1.6km/h 3.0mph /  4.8km/h 84% 0.00in /  0mm 0 W/m2
19:54 2.2 °F /  -16.6 °C -1.5 °F /  -18.6 °C 30.45in /  1031hPa North 1.0mph /  1.6km/h 4.0mph /  6.4km/h 84% 0.00in /  0mm 0 W/m2
20:04 2.1 °F /  -16.6 °C -1.6 °F /  -18.7 °C 30.45in /  1031hPa NNW 2.0mph /  3.2km/h 2.0mph /  3.2km/h 84% 0.00in /  0mm 0 W/m2
20:12 2.0 °F /  -16.7 °C -1.7 °F /  -18.7 °C 30.46in /  1031.4hPa NW 2.0mph /  3.2km/h 2.0mph /  3.2km/h 84% 0.00in /  0mm 0 W/m2
20:18 2.0 °F /  -16.7 °C -1.7 °F /  -18.7 °C 30.46in /  1031.4hPa NNW 2.0mph /  3.2km/h 4.0mph /  6.4km/h 84% 0.00in /  0mm 0 W/m2
20:24 2.0 °F /  -16.7 °C -1.7 °F /  -18.7 °C 30.46in /  1031.4hPa NNW 2.0mph /  3.2km/h 4.0mph /  6.4km/h 84% 0.00in /  0mm 0 W/m2
20:34 1.9 °F /  -16.7 °C -2.1 °F /  -18.9 °C 30.46in /  1031.4hPa NW 2.0mph /  3.2km/h 3.0mph /  4.8km/h 83% 0.00in /  0mm 0 W/m2
20:42 1.8 °F /  -16.8 °C -2.2 °F /  -19 °C 30.47in /  1031.7hPa NW 2.0mph /  3.2km/h 3.0mph /  4.8km/h 83% 0.00in /  0mm 0 W/m2
20:50 1.7 °F /  -16.8 °C -2.3 °F /  -19.1 °C 30.47in /  1031.7hPa NNW 1.0mph /  1.6km/h 2.0mph /  3.2km/h 83% 0.00in /  0mm 0 W/m2
20:56 1.7 °F /  -16.8 °C -2.3 °F /  -19.1 °C 30.47in /  1031.7hPa NW 1.0mph /  1.6km/h 2.0mph /  3.2km/h 83% 0.00in /  0mm 0 W/m2
21:02 1.6 °F /  -16.9 °C -2.1 °F /  -18.9 °C 30.48in /  1032.1hPa NW 1.0mph /  1.6km/h 2.0mph /  3.2km/h 84% 0.00in /  0mm 0 W/m2
21:08 1.6 °F /  -16.9 °C -2.4 °F /  -19.1 °C 30.48in /  1032.1hPa NW 1.0mph /  1.6km/h 3.0mph /  4.8km/h 83% 0.00in /  0mm 0 W/m2
21:14 1.6 °F /  -16.9 °C -2.1 °F /  -18.9 °C 30.48in /  1032.1hPa NW 1.0mph /  1.6km/h 2.0mph /  3.2km/h 84% 0.00in /  0mm 0 W/m2
21:22 1.6 °F /  -16.9 °C -2.1 °F /  -18.9 °C 30.48in /  1032.1hPa NW 1.0mph /  1.6km/h 1.0mph /  1.6km/h 84% 0.00in /  0mm 0 W/m2
21:30 1.6 °F /  -16.9 °C -2.4 °F /  -19.1 °C 30.48in /  1032.1hPa NW 1.0mph /  1.6km/h 1.0mph /  1.6km/h 83% 0.00in /  0mm 0 W/m2
21:38 1.6 °F /  -16.9 °C -2.1 °F /  -18.9 °C 30.48in /  1032.1hPa NW 1.0mph /  1.6km/h 2.0mph /  3.2km/h 84% 0.00in /  0mm 0 W/m2
21:44 1.6 °F /  -16.9 °C -2.1 °F /  -18.9 °C 30.48in /  1032.1hPa NW 1.0mph /  1.6km/h 4.0mph /  6.4km/h 84% 0.00in /  0mm 0 W/m2
21:50 1.7 °F /  -16.8 °C -2.0 °F /  -18.9 °C 30.48in /  1032.1hPa NW 1.0mph /  1.6km/h 1.0mph /  1.6km/h 84% 0.00in /  0mm 0 W/m2
21:56 1.7 °F /  -16.8 °C -2.0 °F /  -18.9 °C 30.49in /  1032.4hPa NW 1.0mph /  1.6km/h 3.0mph /  4.8km/h 84% 0.00in /  0mm 0 W/m2
22:02 1.7 °F /  -16.8 °C -2.0 °F /  -18.9 °C 30.49in /  1032.4hPa NNW 1.0mph /  1.6km/h 3.0mph /  4.8km/h 84% 0.00in /  0mm 0 W/m2
22:10 1.7 °F /  -16.8 °C -2.0 °F /  -18.9 °C 30.49in /  1032.4hPa NNW 1.0mph /  1.6km/h 1.0mph /  1.6km/h 84% 0.00in /  0mm 0 W/m2
22:16 1.7 °F /  -16.8 °C -2.0 °F /  -18.9 °C 30.49in /  1032.4hPa Calm   2.0mph /  3.2km/h 84% 0.00in /  0mm 0 W/m2
22:24 1.7 °F /  -16.8 °C -2.0 °F /  -18.9 °C 30.49in /  1032.4hPa WNW 1.0mph /  1.6km/h 3.0mph /  4.8km/h 84% 0.00in /  0mm 0 W/m2
22:30 1.7 °F /  -16.8 °C -2.0 °F /  -18.9 °C 30.49in /  1032.4hPa NNW 1.0mph /  1.6km/h 1.0mph /  1.6km/h 84% 0.00in /  0mm 0 W/m2
22:36 1.7 °F /  -16.8 °C -2.0 °F /  -18.9 °C 30.49in /  1032.4hPa NNW 1.0mph /  1.6km/h 1.0mph /  1.6km/h 84% 0.00in /  0mm 0 W/m2
22:42 1.7 °F /  -16.8 °C -2.0 °F /  -18.9 °C 30.49in /  1032.4hPa Calm   1.0mph /  1.6km/h 84% 0.00in /  0mm 0 W/m2
22:48 1.7 °F /  -16.8 °C -2.0 °F /  -18.9 °C 30.49in /  1032.4hPa Calm   1.0mph /  1.6km/h 84% 0.00in /  0mm 0 W/m2
22:54 1.7 °F /  -16.8 °C -2.0 °F /  -18.9 °C 30.49in /  1032.4hPa Calm   2.0mph /  3.2km/h 84% 0.00in /  0mm 0 W/m2
23:02 1.7 °F /  -16.8 °C -2.0 °F /  -18.9 °C 30.49in /  1032.4hPa NNW 1.0mph /  1.6km/h 2.0mph /  3.2km/h 84% 0.00in /  0mm 0 W/m2
23:08 1.7 °F /  -16.8 °C -2.0 °F /  -18.9 °C 30.49in /  1032.4hPa WNW 1.0mph /  1.6km/h 2.0mph /  3.2km/h 84% 0.00in /  0mm 0 W/m2
23:16 1.8 °F /  -16.8 °C -1.9 °F /  -18.8 °C 30.49in /  1032.4hPa WNW 1.0mph /  1.6km/h 1.0mph /  1.6km/h 84% 0.00in /  0mm 0 W/m2
23:24 1.8 °F /  -16.8 °C -1.9 °F /  -18.8 °C 30.49in /  1032.4hPa NW 1.0mph /  1.6km/h 2.0mph /  3.2km/h 84% 0.00in /  0mm 0 W/m2
23:30 1.8 °F /  -16.8 °C -1.9 °F /  -18.8 °C 30.49in /  1032.4hPa WNW 1.0mph /  1.6km/h 2.0mph /  3.2km/h 84% 0.00in /  0mm 0 W/m2
23:36 1.9 °F /  -16.7 °C -1.8 °F /  -18.8 °C 30.49in /  1032.4hPa WNW 2.0mph /  3.2km/h 2.0mph /  3.2km/h 84% 0.00in /  0mm 0 W/m2
23:46 1.9 °F /  -16.7 °C -1.8 °F /  -18.8 °C 30.50in /  1032.7hPa NW 1.0mph /  1.6km/h 1.0mph /  1.6km/h 84% 0.00in /  0mm 0 W/m2
23:56 2.0 °F /  -16.7 °C -1.7 °F /  -18.7 °C 30.50in /  1032.7hPa NW 1.0mph /  1.6km/h 2.0mph /  3.2km/h 84% 0.00in /  0mm 0 W/m2
Country Meadow, Clay, NY, USA
Compliments of Weather Underground - 2 mb